ADDS METAR Data INFO
IDs: Format: Raw Decoded Include TAF

Data at: 1611 UTC 14 Aug 2018

METAR for:TJBQ (Aquadilla/Hernandez, --, PR)
Text:TJBQ 141550Z 08014G20KT 10SM SCT019 SCT024 30/24 A3003
Temperature: 30.0°C ( 86°F)
Dewpoint: 24.0°C ( 75°F) [RH = 70%]
Pressure (altimeter):30.03 inches Hg (1017.0 mb)
Winds:from the E (80 degrees) at 16 MPH (14 knots; 7.2 m/s) gusting to 23 MPH (20 knots; 10.3 m/s)
Visibility:10 or more sm (16+ km)
Ceiling:at least 12,000 feet AGL
Clouds: scattered clouds at 1900 feet AGL, scattered clouds at 2400 feet AGL